Главная страница
METAR-TAF:

METAR-TAF

Аэропорты :

Антигуа, Антигуа и Барбуда

широта: 17-07N, долгота: 061-47W, высота над уровнем моря: 8 м

Текущие метеонаблюдения

Эта сводка был подготовлена 40 минут назад, в 19:00 UTC
Ветер 5 Узел от восточный
Температура 28°C
Влажность 66%
Давление 1016 hPa
Видимость 10 км и более
небольшая облачность на высоте 2000 фута

METAR: TAPA 121900Z 10005KT 9999 FEW020 28/21 Q1016 NOSIG

Время: 15:40 (19:40 UTC)

Прогноз

Эта сводка был подготовлена 2 часа и 40 минут назад, в 17:00 UTC
Прогноз действительный с 12-го 18 UTC до 13-го 18 UTC
Ветер 11 Узел от восточный
Видимость 10 км и более
Отдельные облака на высоте 2000 фута

TAF: TAPA 121700Z 1218/1318 10011KT 9999 SCT020

Метеонаблюдения и прогнозы для более 4000 аэропортов (сводки METAR и TAF).

Имеющиеся станции представлены на карте желтыми и красными точками.

Чтобы увидеть название станции, наведите на нее мышь.

Затем щелкните, чтобы увидеть метеонаблюдения и метеопрогнозы.

Управление картой: чтобы увеличить масштаб, щелкните зеленые кнопки с черным крестиком; чтобы уменьшить масштаб, щелкните зеленую кнопку с тире; для просмотра соседних карт щелкайте зеленые стрелки.


METAR-TAF: